| time (UTC) | temp C | wind direction | speed KPH | gust KPH | rain 1hr cm | rain 24hr cm | rain mn cm | humidity % | barometer mb |
| 20260503230539 | 18 | 146 | 1.6 | 6.4 | 0.00 | 0.00 | 0.00 | 61 | 1017.5 |
| 20260503230105 | 18 | 96 | 1.6 | 6.4 | 0.00 | 0.00 | 0.00 | 61 | 1017.5 |
| 20260503225539 | 18 | 130 | 1.6 | 8.0 | 0.00 | 0.00 | 0.00 | 60 | 1017.6 |
| 20260503225037 | 18 | 146 | 1.6 | 9.7 | 0.00 | 0.00 | 0.00 | 61 | 1017.5 |
| 20260503224559 | 18 | 181 | 1.6 | 9.7 | 0.00 | 0.00 | 0.00 | 58 | 1017.6 |
| 20260503224038 | 18 | 200 | 1.6 | 9.7 | 0.00 | 0.00 | 0.00 | 59 | 1017.6 |
| 20260503223538 | 18 | 177 | 1.6 | 9.7 | 0.00 | 0.00 | 0.00 | 57 | 1017.5 |
| 20260503223049 | 19 | 135 | 1.6 | 6.4 | 0.00 | 0.00 | 0.00 | 58 | 1017.4 |
| 20260503222538 | 19 | 177 | 1.6 | 9.7 | 0.00 | 0.00 | 0.00 | 56 | 1017.5 |
| 20260503222042 | 20 | 153 | 1.6 | 9.7 | 0.00 | 0.00 | 0.00 | 56 | 1017.4 |
| 20260503221550 | 20 | 223 | 1.6 | 8.0 | 0.00 | 0.00 | 0.00 | 56 | 1017.4 |
| 20260503221036 | 19 | 184 | 1.6 | 8.0 | 0.00 | 0.00 | 0.00 | 57 | 1017.4 |
| 20260503220535 | 20 | 182 | 1.6 | 8.0 | 0.00 | 0.00 | 0.00 | 55 | 1017.3 |
| 20260503220053 | 20 | 164 | 1.6 | 8.0 | 0.00 | 0.00 | 0.00 | 55 | 1017.3 |
| 20260503215538 | 20 | 217 | 1.6 | 6.4 | 0.00 | 0.00 | 0.00 | 56 | 1017.4 |
| 20260503215039 | 20 | 200 | 3.2 | 6.4 | 0.00 | 0.00 | 0.00 | 54 | 1017.3 |
| 20260503214547 | 20 | 101 | 1.6 | 9.7 | 0.00 | 0.00 | 0.00 | 56 | 1017.3 |
| 20260503214039 | 20 | 178 | 3.2 | 9.7 | 0.00 | 0.00 | 0.00 | 56 | 1017.3 |
| 20260503213539 | 20 | 184 | 1.6 | 6.4 | 0.00 | 0.00 | 0.00 | 56 | 1017.4 |
| 20260503213056 | 20 | 185 | 1.6 | 6.4 | 0.00 | 0.00 | 0.00 | 57 | 1017.3 |
| 20260503212539 | 20 | 0 | 1.6 | 9.7 | 0.00 | 0.00 | 0.00 | 58 | 1017.4 |
| 20260503212039 | 20 | 128 | 1.6 | 12.9 | 0.00 | 0.00 | 0.00 | 57 | 1017.4 |
| 20260503211610 | 20 | 86 | 1.6 | 12.9 | 0.00 | 0.00 | 0.00 | 56 | 1017.6 |
| 20260503211038 | 20 | 157 | 1.6 | 12.9 | 0.00 | 0.00 | 0.00 | 59 | 1017.6 |
| 20260503210540 | 20 | 148 | 3.2 | 11.3 | 0.00 | 0.00 | 0.00 | 58 | 1017.6 |
| 20260503210050 | 20 | 186 | 3.2 | 9.7 | 0.00 | 0.00 | 0.00 | 59 | 1017.7 |
| 20260503205538 | 20 | 125 | 3.2 | 11.3 | 0.00 | 0.03 | 0.00 | 55 | 1017.9 |
| 20260503205039 | 20 | 189 | 4.8 | 11.3 | 0.00 | 0.03 | 0.00 | 57 | 1018.0 |
| 20260503204548 | 20 | 175 | 4.8 | 12.9 | 0.00 | 0.03 | 0.00 | 55 | 1017.9 |
| 20260503204036 | 20 | 196 | 4.8 | 12.9 | 0.00 | 0.03 | 0.00 | 58 | 1018.0 |
| 20260503203536 | 20 | 166 | 3.2 | 11.3 | 0.00 | 0.03 | 0.00 | 58 | 1018.1 |
| 20260503203049 | 20 | 175 | 3.2 | 9.7 | 0.00 | 0.03 | 0.00 | 57 | 1018.0 |
| 20260503202539 | 20 | 163 | 3.2 | 11.3 | 0.00 | 0.03 | 0.00 | 55 | 1018.1 |
| 20260503202038 | 20 | 122 | 3.2 | 11.3 | 0.00 | 0.03 | 0.00 | 56 | 1018.1 |
| 20260503201548 | 20 | 94 | 3.2 | 11.3 | 0.00 | 0.03 | 0.00 | 56 | 1018.2 |
| 20260503201041 | 18 | 145 | 1.6 | 9.7 | 0.00 | 0.03 | 0.00 | 58 | 1018.2 |
| 20260503200539 | 18 | 94 | 1.6 | 9.7 | 0.00 | 0.03 | 0.00 | 60 | 1018.3 |
| 20260503200056 | 18 | 151 | 3.2 | 9.7 | 0.00 | 0.03 | 0.00 | 58 | 1018.3 |
| 20260503195538 | 19 | 167 | 1.6 | 11.3 | 0.00 | 0.15 | 0.00 | 59 | 1018.3 |
| 20260503195038 | 20 | 104 | 1.6 | 14.5 | 0.00 | 0.15 | 0.00 | 58 | 1018.3 |
| 20260503194556 | 20 | 109 | 4.8 | 14.5 | 0.00 | 0.15 | 0.00 | 55 | 1018.5 |
| 20260503194037 | 20 | 153 | 4.8 | 12.9 | 0.00 | 0.15 | 0.00 | 53 | 1018.5 |
| 20260503193536 | 21 | 126 | 3.2 | 12.9 | 0.00 | 0.15 | 0.00 | 56 | 1018.5 |
| 20260503193101 | 21 | 181 | 1.6 | 12.9 | 0.00 | 0.15 | 0.00 | 54 | 1018.7 |
| 20260503192541 | 20 | 161 | 4.8 | 11.3 | 0.00 | 0.15 | 0.00 | 55 | 1018.8 |
| 20260503192039 | 21 | 121 | 3.2 | 9.7 | 0.00 | 0.15 | 0.00 | 58 | 1018.9 |
| 20260503191549 | 20 | 152 | 1.6 | 9.7 | 0.00 | 0.15 | 0.00 | 61 | 1018.9 |
| 20260503191039 | 19 | 83 | 1.6 | 8.0 | 0.00 | 0.15 | 0.00 | 56 | 1019.1 |
| 20260503190538 | 18 | 0 | 1.6 | 8.0 | 0.00 | 0.15 | 0.00 | 59 | 1019.2 |
| 20260503190049 | 18 | 148 | 1.6 | 8.0 | 0.00 | 0.15 | 0.00 | 58 | 1019.3 |
| 20260503185536 | 18 | 190 | 1.6 | 8.0 | 0.00 | 0.28 | 0.00 | 57 | 1019.3 |
| 20260503185037 | 19 | 184 | 1.6 | 6.4 | 0.00 | 0.28 | 0.00 | 57 | 1019.3 |
| 20260503184602 | 18 | 98 | 1.6 | 8.0 | 0.00 | 0.28 | 0.00 | 62 | 1019.4 |
| 20260503184036 | 18 | 186 | 1.6 | 11.3 | 0.00 | 0.28 | 0.00 | 58 | 1019.5 |
| 20260503183539 | 18 | 203 | 3.2 | 12.9 | 0.00 | 0.28 | 0.00 | 56 | 1019.5 |
| 20260503183053 | 18 | 188 | 3.2 | 12.9 | 0.00 | 0.28 | 0.00 | 57 | 1019.6 |
| 20260503182538 | 19 | 128 | 3.2 | 12.9 | 0.00 | 0.28 | 0.00 | 59 | 1019.6 |
| 20260503182035 | 19 | 161 | 3.2 | 9.7 | 0.00 | 0.28 | 0.00 | 56 | 1019.6 |
| 20260503181608 | 20 | 49 | 1.6 | 9.7 | 0.00 | 0.28 | 0.00 | 56 | 1019.8 |
| 20260503181035 | 21 | 169 | 1.6 | 12.9 | 0.00 | 0.28 | 0.00 | 49 | 1019.6 |
| 20260503180539 | 21 | 327 | 4.8 | 12.9 | 0.00 | 0.28 | 0.00 | 49 | 1019.5 |
| 20260503180110 | 20 | 311 | 4.8 | 12.9 | 0.00 | 0.28 | 0.00 | 47 | 1019.6 |
| 20260503175538 | 21 | 173 | 3.2 | 9.7 | 0.00 | 0.56 | 0.00 | 48 | 1019.6 |
| 20260503175038 | 20 | 0 | 0.0 | 9.7 | 0.00 | 0.56 | 0.00 | 46 | 1019.6 |
| 20260503174556 | 20 | 142 | 1.6 | 8.0 | 0.00 | 0.56 | 0.00 | 52 | 1019.7 |
| 20260503174038 | 20 | 5 | 1.6 | 8.0 | 0.00 | 0.56 | 0.00 | 46 | 1019.6 |
| 20260503173538 | 20 | 47 | 1.6 | 8.0 | 0.00 | 0.56 | 0.00 | 50 | 1019.6 |
| 20260503173059 | 20 | 128 | 1.6 | 9.7 | 0.00 | 0.56 | 0.00 | 48 | 1019.7 |
| 20260503172537 | 19 | 193 | 4.8 | 11.3 | 0.00 | 0.56 | 0.00 | 49 | 1019.8 |
| 20260503172037 | 19 | 201 | 6.4 | 11.3 | 0.00 | 0.56 | 0.00 | 47 | 1019.8 |
| 20260503171549 | 20 | 190 | 3.2 | 9.7 | 0.00 | 0.56 | 0.00 | 49 | 1019.9 |
| 20260503171039 | 19 | 190 | 1.6 | 4.8 | 0.00 | 0.56 | 0.00 | 53 | 1019.9 |
| 20260503170536 | 18 | 202 | 1.6 | 8.0 | 0.00 | 0.56 | 0.00 | 51 | 1020.0 |
| 20260503150539 | 17 | 291 | 3.2 | 12.9 | 0.00 | 0.89 | 0.00 | 58 | 1020.5 |
| 20260503131035 | 13 | 284 | 3.2 | 8.0 | 0.00 | 1.78 | 0.00 | 82 | 1019.8 |
| 20260503130537 | 13 | 346 | 1.6 | 4.8 | 0.00 | 1.78 | 0.00 | 84 | 1019.9 |
| 20260503110540 | 7 | 0 | 0.0 | 0.0 | 0.00 | 2.03 | 0.00 | 94 | 1018.7 |
| 20260503081549 | 9 | 0 | 0.0 | 0.0 | 0.00 | 2.74 | 0.00 | 93 | 1017.0 |
| 20260503081039 | 9 | 0 | 0.0 | 0.0 | 0.00 | 2.74 | 0.00 | 93 | 1017.0 |
| 20260503080536 | 9 | 0 | 0.0 | 0.0 | 0.00 | 2.74 | 0.00 | 93 | 1017.0 |
| 20260503072541 | 9 | 0 | 0.0 | 0.0 | 0.00 | 2.82 | 0.00 | 93 | 1016.7 |
| 20260503072036 | 9 | 0 | 0.0 | 0.0 | 0.00 | 2.82 | 0.00 | 93 | 1016.7 |
| 20260503071552 | 9 | 0 | 0.0 | 0.0 | 0.00 | 2.82 | 0.00 | 93 | 1016.6 |
| 20260503071043 | 9 | 0 | 0.0 | 0.0 | 0.00 | 2.82 | 0.00 | 93 | 1016.7 |
| 20260503070535 | 9 | 0 | 0.0 | 0.0 | 0.00 | 2.82 | 0.00 | 93 | 1016.6 |
| 20260503055038 | 10 | 0 | 0.0 | 1.6 | 0.00 | 2.95 | 0.00 | 92 | 1016.4 |
| 20260503054546 | 10 | 0 | 0.0 | 3.2 | 0.00 | 2.95 | 0.00 | 92 | 1016.4 |
| 20260503054039 | 10 | 0 | 0.0 | 3.2 | 0.00 | 2.95 | 0.00 | 92 | 1016.4 |
| 20260503053538 | 11 | 322 | 0.0 | 3.2 | 0.00 | 2.95 | 0.00 | 92 | 1016.3 |
| 20260503053047 | 10 | 0 | 0.0 | 3.2 | 0.00 | 2.95 | 0.00 | 92 | 1016.2 |
| 20260503052536 | 11 | 0 | 0.0 | 3.2 | 0.00 | 2.95 | 0.00 | 92 | 1016.2 |
| 20260503052036 | 11 | 0 | 0.0 | 1.6 | 0.00 | 2.95 | 0.00 | 92 | 1016.2 |
| 20260503051550 | 11 | 0 | 0.0 | 3.2 | 0.00 | 2.95 | 0.00 | 92 | 1016.3 |
| 20260503051037 | 11 | 0 | 0.0 | 3.2 | 0.00 | 2.95 | 0.00 | 92 | 1016.3 |
| 20260503050536 | 11 | 322 | 0.0 | 1.6 | 0.00 | 2.95 | 0.00 | 92 | 1016.2 |
| 20260503050048 | 11 | 0 | 0.0 | 0.0 | 0.00 | 2.95 | 0.00 | 92 | 1016.1 |
| 20260503045541 | 11 | 0 | 0.0 | 0.0 | 0.00 | 2.95 | 0.00 | 91 | 1016.1 |
| 20260503045039 | 11 | 0 | 0.0 | 0.0 | 0.00 | 2.95 | 0.00 | 91 | 1016.0 |
| 20260503044548 | 11 | 0 | 0.0 | 3.2 | 0.00 | 2.95 | 0.00 | 91 | 1015.9 |
| 20260503044035 | 11 | 0 | 0.0 | 3.2 | 0.00 | 2.95 | 0.00 | 91 | 1015.9 |
| 20260503043536 | 11 | 322 | 0.0 | 3.2 | 0.00 | 2.95 | 0.00 | 91 | 1015.8 |
| 20260503043046 | 11 | 322 | 1.6 | 3.2 | 0.00 | 2.95 | 0.00 | 91 | 1015.7 |
| 20260503042536 | 11 | 321 | 0.0 | 3.2 | 0.00 | 2.95 | 0.00 | 91 | 1015.7 |
| 20260503042038 | 11 | 326 | 0.0 | 4.8 | 0.00 | 2.95 | 0.00 | 91 | 1015.5 |
| 20260503041550 | 11 | 326 | 1.6 | 4.8 | 0.00 | 2.95 | 0.00 | 91 | 1015.6 |
| 20260503041038 | 12 | 329 | 1.6 | 4.8 | 0.00 | 2.95 | 0.00 | 91 | 1015.6 |
| 20260503040535 | 12 | 324 | 0.0 | 4.8 | 0.00 | 2.95 | 0.00 | 91 | 1015.3 |
| 20260503040046 | 12 | 0 | 0.0 | 3.2 | 0.00 | 2.95 | 0.00 | 91 | 1015.3 |
| 20260503035536 | 12 | 300 | 0.0 | 0.0 | 0.00 | 2.95 | 2.95 | 91 | 1015.2 |
| 20260503035036 | 12 | 0 | 0.0 | 0.0 | 0.00 | 2.95 | 2.95 | 90 | 1015.0 |
| 20260503034557 | 12 | 0 | 0.0 | 0.0 | 0.00 | 2.95 | 2.95 | 90 | 1014.9 |
| 20260503034036 | 12 | 0 | 0.0 | 0.0 | 0.00 | 2.95 | 2.95 | 90 | 1015.0 |
| 20260503033535 | 12 | 0 | 0.0 | 3.2 | 0.00 | 2.95 | 2.95 | 90 | 1014.9 |
| 20260503033046 | 12 | 0 | 0.0 | 6.4 | 0.00 | 2.95 | 2.95 | 90 | 1014.9 |
| 20260503032535 | 12 | 300 | 1.6 | 6.4 | 0.00 | 2.95 | 2.95 | 89 | 1014.7 |
| 20260503032038 | 12 | 0 | 0.0 | 3.2 | 0.00 | 2.95 | 2.95 | 89 | 1014.9 |
| 20260503031547 | 12 | 0 | 0.0 | 3.2 | 0.00 | 2.95 | 2.95 | 89 | 1014.8 |
| 20260503031038 | 12 | 301 | 0.0 | 3.2 | 0.00 | 2.95 | 2.95 | 89 | 1014.6 |
| 20260503030535 | 12 | 301 | 0.0 | 3.2 | 0.00 | 2.95 | 2.95 | 88 | 1014.5 |
| 20260503030118 | 12 | 0 | 0.0 | 4.8 | 0.00 | 2.95 | 2.95 | 88 | 1014.5 |
| 20260503025536 | 12 | 0 | 0.0 | 4.8 | 0.00 | 2.95 | 2.95 | 88 | 1014.6 |
| 20260503025037 | 12 | 0 | 0.0 | 6.4 | 0.00 | 2.95 | 2.95 | 88 | 1014.5 |
| 20260503024549 | 12 | 0 | 1.6 | 6.4 | 0.00 | 2.95 | 2.95 | 88 | 1014.5 |
| 20260503024036 | 12 | 315 | 0.0 | 4.8 | 0.00 | 2.95 | 2.95 | 88 | 1014.4 |
| 20260503023536 | 12 | 317 | 0.0 | 6.4 | 0.00 | 2.95 | 2.95 | 88 | 1014.3 |
| 20260503023051 | 12 | 302 | 1.6 | 6.4 | 0.00 | 2.95 | 2.95 | 88 | 1014.3 |
| 20260503022535 | 12 | 339 | 0.0 | 4.8 | 0.00 | 2.95 | 2.95 | 88 | 1014.2 |
| 20260503022038 | 12 | 330 | 1.6 | 4.8 | 0.00 | 2.95 | 2.95 | 88 | 1014.1 |
| 20260503021602 | 12 | 0 | 0.0 | 3.2 | 0.00 | 2.95 | 2.95 | 88 | 1013.9 |
| 20260503021038 | 12 | 0 | 0.0 | 3.2 | 0.00 | 2.95 | 2.95 | 88 | 1013.9 |
| 20260503020538 | 12 | 0 | 0.0 | 6.4 | 0.00 | 2.95 | 2.95 | 88 | 1013.9 |
| 20260503020049 | 12 | 306 | 1.6 | 6.4 | 0.00 | 2.95 | 2.95 | 88 | 1013.8 |
| 20260503015536 | 12 | 299 | 1.6 | 9.7 | 0.00 | 2.95 | 2.95 | 88 | 1013.8 |
| 20260503015039 | 12 | 0 | 0.0 | 11.3 | 0.00 | 2.95 | 2.95 | 88 | 1013.7 |
| 20260503014602 | 12 | 344 | 1.6 | 11.3 | 0.00 | 2.95 | 2.95 | 88 | 1013.5 |
| 20260503014039 | 12 | 0 | 0.0 | 3.2 | 0.00 | 2.95 | 2.95 | 88 | 1013.3 |
| 20260503013539 | 12 | 0 | 0.0 | 3.2 | 0.00 | 2.95 | 2.95 | 88 | 1013.3 |
| 20260503013053 | 12 | 0 | 0.0 | 6.4 | 0.00 | 2.95 | 2.95 | 87 | 1013.1 |
| 20260503012536 | 12 | 0 | 0.0 | 6.4 | 0.00 | 2.95 | 2.95 | 87 | 1013.1 |
| 20260503012037 | 12 | 355 | 1.6 | 6.4 | 0.00 | 2.95 | 2.95 | 87 | 1013.3 |
| 20260503011555 | 12 | 95 | 0.0 | 4.8 | 0.00 | 2.95 | 2.95 | 88 | 1013.4 |
| 20260503011037 | 12 | 0 | 0.0 | 6.4 | 0.00 | 2.95 | 2.95 | 88 | 1013.3 |
| 20260503010536 | 12 | 0 | 0.0 | 6.4 | 0.00 | 2.95 | 2.95 | 88 | 1013.4 |
| 20260503010104 | 12 | 340 | 0.0 | 11.3 | 0.00 | 2.95 | 2.95 | 88 | 1013.4 |
| 20260503005540 | 12 | 344 | 1.6 | 11.3 | 0.00 | 3.02 | 2.95 | 88 | 1013.4 |
| 20260503005039 | 12 | 350 | 1.6 | 6.4 | 0.00 | 3.02 | 2.95 | 88 | 1013.3 |
| 20260503004546 | 12 | 277 | 0.0 | 4.8 | 0.00 | 3.02 | 2.95 | 87 | 1013.3 |
| 20260503004038 | 12 | 292 | 1.6 | 12.9 | 0.00 | 3.02 | 2.95 | 87 | 1013.1 |
| 20260503003536 | 12 | 209 | 1.6 | 12.9 | 0.00 | 3.02 | 2.95 | 88 | 1012.8 |
| 20260503003117 | 12 | 334 | 1.6 | 8.0 | 0.00 | 3.02 | 2.95 | 88 | 1012.9 |
| 20260503002539 | 13 | 286 | 1.6 | 8.0 | 0.00 | 3.02 | 2.95 | 88 | 1012.9 |
| 20260503002039 | 13 | 0 | 1.6 | 4.8 | 0.00 | 3.02 | 2.95 | 88 | 1012.8 |
| 20260503001549 | 13 | 294 | 1.6 | 8.0 | 0.00 | 3.02 | 2.95 | 88 | 1012.5 |
| 20260503001039 | 13 | 327 | 1.6 | 8.0 | 0.00 | 3.02 | 2.95 | 88 | 1012.4 |
| 20260503000535 | 13 | 340 | 1.6 | 6.4 | 0.00 | 3.02 | 2.95 | 88 | 1012.5 |
| 20260503000053 | 13 | 0 | 0.0 | 6.4 | 0.00 | 3.02 | 2.95 | 88 | 1012.5 |
| 20260502235539 | 13 | 333 | 1.6 | 6.4 | 0.00 | 3.17 | 2.95 | 88 | 1012.5 |
| 20260502235038 | 13 | 0 | 1.6 | 8.0 | 0.00 | 3.17 | 2.95 | 88 | 1012.4 |
| 20260502234548 | 13 | 313 | 1.6 | 8.0 | 0.00 | 3.17 | 2.95 | 88 | 1012.4 |
| 20260502234038 | 13 | 0 | 1.6 | 8.0 | 0.00 | 3.17 | 2.95 | 88 | 1012.2 |
| 20260502233536 | 13 | 309 | 1.6 | 8.0 | 0.00 | 3.17 | 2.95 | 88 | 1012.0 |
| 20260502233047 | 13 | 292 | 1.6 | 14.5 | 0.00 | 3.17 | 2.95 | 88 | 1012.1 |
| 20260502232539 | 13 | 279 | 3.2 | 14.5 | 0.00 | 3.17 | 2.95 | 88 | 1012.1 |
| 20260502232039 | 13 | 337 | 3.2 | 6.4 | 0.00 | 3.17 | 2.95 | 89 | 1012.0 |
| 20260502231544 | 13 | 0 | 1.6 | 6.4 | 0.00 | 3.17 | 2.95 | 89 | 1011.9 |
| 20260502231036 | 13 | 0 | 1.6 | 6.4 | 0.00 | 3.17 | 2.95 | 88 | 1011.7 |